Time;durP1;ratioP1;P1;durP2;ratioP2;P2;SDS_P1;SDS_P2;PMS_P1;PMS_P2;Temp;Humidity;BMP_temperature;BMP_pressure;BME280_temperature;BME280_humidity;BME280_pressure;Samples;Min_cycle;Max_cycle;Signal;HPM_P1;HPM_P2
2023/01/13 00:02:22;;;;;;;14.02;3.25;;;10.50;99.90;;;;;;4975428;28;20054;-84
2023/01/13 00:04:50;;;;;;;17.38;3.10;;;10.50;99.90;;;;;;4959575;28;20023;-84
2023/01/13 00:07:19;;;;;;;17.27;3.00;;;10.50;99.90;;;;;;4958988;28;20027;-85
2023/01/13 00:09:52;;;;;;;24.92;3.55;;;10.40;99.90;;;;;;4975298;28;20449;-84
2023/01/13 00:12:27;;;;;;;22.08;3.83;;;10.40;99.90;;;;;;4975049;28;20031;-84
2023/01/13 00:14:59;;;;;;;20.70;3.60;;;10.30;99.90;;;;;;4959329;28;20418;-84
2023/01/13 00:17:33;;;;;;;16.92;3.55;;;10.20;99.90;;;;;;4959208;28;20536;-85
2023/01/13 00:20:02;;;;;;;18.10;3.35;;;10.20;99.90;;;;;;4959811;28;20038;-84
2023/01/13 00:22:28;;;;;;;23.02;4.47;;;10.10;99.90;;;;;;4958958;28;20046;-83
2023/01/13 00:25:06;;;;;;;;;;;;;;;;;;;;;
2023/01/13 00:27:40;;;;;;;23.45;3.67;;;10.10;99.90;;;;;;4956811;28;20033;-84
2023/01/13 00:30:09;;;;;;;22.20;5.00;;;10.00;99.90;;;;;;4955556;29;20115;-84
2023/01/13 00:32:40;;;;;;;21.02;3.30;;;10.00;99.90;;;;;;4955768;29;20082;-84
2023/01/13 00:35:22;;;;;;;20.63;3.53;;;10.00;99.90;;;;;;4955961;29;20050;-85
2023/01/13 00:37:48;;;;;;;23.52;4.32;;;10.00;99.90;;;;;;4955740;29;20106;-84
2023/01/13 00:40:34;;;;;;;15.98;3.15;;;9.90;99.90;;;;;;4955855;29;20562;-84
2023/01/13 00:45:47;;;;;;;21.58;4.00;;;9.90;99.90;;;;;;4969558;28;20038;-85
2023/01/13 00:48:15;;;;;;;20.27;4.43;;;9.90;99.90;;;;;;4971455;28;20019;-84
2023/01/13 00:50:40;;;;;;;21.65;3.67;;;9.80;99.90;;;;;;4971427;28;20034;-84
2023/01/13 00:53:34;;;;;;;;;;;;;;;;;;;;;
2023/01/13 00:56:20;;;;;;;;;;;;;;;;;;;;;
2023/01/13 00:59:05;;;;;;;;;;;;;;;;;;;;;
2023/01/13 01:01:32;;;;;;;20.95;3.88;;;9.80;99.90;;;;;;4969617;28;20037;-84
2023/01/13 01:04:06;;;;;;;27.40;4.03;;;9.70;99.90;;;;;;4955053;29;20130;-84
2023/01/13 01:06:54;;;;;;;18.70;3.17;;;9.70;99.90;;;;;;4954745;29;20019;-84
2023/01/13 01:09:33;;;;;;;;;;;;;;;;;;;;;
2023/01/13 01:12:04;;;;;;;24.58;4.03;;;9.70;99.90;;;;;;4956556;29;20039;-84
2023/01/13 01:14:32;;;;;;;;;;;9.70;99.90;;;;;;4955620;29;20490;-84
2023/01/13 01:17:00;;;;;;;21.45;3.88;;;9.60;99.90;;;;;;4971536;28;19942;-84
2023/01/13 01:19:36;;;;;;;21.98;4.65;;;9.60;99.90;;;;;;4955053;29;20031;-84
2023/01/13 01:22:22;;;;;;;23.73;4.25;;;9.60;99.90;;;;;;4954890;29;20472;-84
2023/01/13 01:24:58;;;;;;;21.77;4.22;;;9.50;99.90;;;;;;4954846;28;20463;-85
2023/01/13 01:27:37;;;;;;;21.67;3.53;;;9.50;99.90;;;;;;4954936;29;20034;-84
2023/01/13 01:30:11;;;;;;;20.45;3.55;;;9.50;99.90;;;;;;4954882;29;20074;-84
2023/01/13 01:32:49;;;;;;;;;;;;;;;;;;;;;
2023/01/13 01:35:25;;;;;;;34.90;5.95;;;9.50;99.90;;;;;;4956055;29;20486;-85
2023/01/13 01:38:03;;;;;;;;;;;;;;;;;;;;;
2023/01/13 01:40:34;;;;;;;30.58;5.15;;;9.50;99.90;;;;;;4968627;28;20471;-83
2023/01/13 01:45:44;;;;;;;23.73;4.05;;;9.50;99.90;;;;;;4956190;29;20046;-83
2023/01/13 01:48:11;;;;;;;24.35;4.43;;;9.50;99.90;;;;;;4955287;28;20043;-85
2023/01/13 01:50:48;;;;;;;28.13;4.63;;;9.50;99.90;;;;;;4955274;29;20038;-84
2023/01/13 01:53:34;;;;;;;26.77;4.47;;;9.50;99.90;;;;;;4955466;28;20035;-84
2023/01/13 01:56:21;;;;;;;35.03;4.70;;;9.40;99.90;;;;;;4954617;29;20043;-85
2023/01/13 01:58:53;;;;;;;23.88;4.35;;;9.40;99.90;;;;;;4971356;28;20023;-86
2023/01/13 02:01:40;;;;;;;27.77;4.07;;;9.40;99.90;;;;;;4954414;29;20039;-85
2023/01/13 02:04:20;;;;;;;25.67;3.92;;;9.40;99.90;;;;;;4954699;28;20573;-85
2023/01/13 02:06:56;;;;;;;26.02;4.07;;;9.40;99.90;;;;;;4953934;29;20027;-85
2023/01/13 02:09:26;;;;;;;31.92;4.78;;;9.40;99.90;;;;;;4954007;29;20474;-84
2023/01/13 02:14:53;;;;;;;;;;;;;;;;;;;;;
2023/01/13 02:17:30;;;;;;;26.95;5.38;;;9.30;99.90;;;;;;4955413;29;20463;-84
2023/01/13 02:20:19;;;;;;;29.15;5.85;;;9.30;99.90;;;;;;4970244;28;20398;-85
2023/01/13 02:24:52;;;;;;;26.55;3.85;;;9.30;99.90;;;;;;4953242;29;20062;-84
2023/01/13 02:26:11;;;;;;;26.70;4.40;;;9.30;99.90;;;;;;4972494;28;20075;-85
2023/01/13 02:31:53;;;;;;;23.65;3.90;;;9.20;99.90;;;;;;4976054;28;20095;-83
2023/01/13 02:35:04;;;;;;;21.55;4.03;;;9.20;99.90;;;;;;4973034;28;20027;-85
2023/01/13 02:37:31;;;;;;;;;;;9.20;99.90;;;;;;4969956;28;20047;-84
2023/01/13 02:46:31;;;;;;;24.10;3.42;;;9.10;99.90;;;;;;4914706;29;20028;-85
2023/01/13 02:49:11;;;;;;;24.50;4.32;;;9.10;99.90;;;;;;4914609;29;20062;-85
2023/01/13 02:51:57;;;;;;;24.10;4.78;;;9.10;99.90;;;;;;4957218;28;20122;-84
2023/01/13 02:54:41;;;;;;;28.08;4.63;;;9.10;99.90;;;;;;4960847;28;20034;-85
2023/01/13 02:57:23;;;;;;;;;;;;;;;;;;;;;
2023/01/13 03:00:00;;;;;;;24.58;4.63;;;9.00;99.90;;;;;;4977966;28;20049;-85
2023/01/13 03:02:33;;;;;;;29.85;4.65;;;9.10;99.90;;;;;;4976535;28;20030;-85
2023/01/13 03:04:59;;;;;;;23.15;4.60;;;9.10;99.90;;;;;;4960901;28;20035;-84
2023/01/13 03:08:06;;;;;;;30.77;4.45;;;9.00;99.90;;;;;;4960945;28;20019;-85
2023/01/13 03:11:10;;;;;;;26.27;4.43;;;9.00;99.90;;;;;;4976335;28;20037;-85
2023/01/13 03:13:58;;;;;;;29.38;4.68;;;9.00;99.90;;;;;;4953982;28;20035;-85
2023/01/13 03:16:42;;;;;;;23.92;3.92;;;9.00;99.90;;;;;;4976292;28;20026;-85
2023/01/13 03:19:20;;;;;;;34.25;4.88;;;9.00;99.90;;;;;;4976292;28;20027;-85
2023/01/13 03:22:10;;;;;;;34.97;4.78;;;9.00;99.90;;;;;;4975936;28;20026;-87
2023/01/13 03:24:48;;;;;;;26.73;4.32;;;9.00;99.90;;;;;;4959103;28;20078;-91
2023/01/13 03:30:19;;;;;;;22.73;4.28;;;9.00;99.90;;;;;;4970370;28;20073;-85
2023/01/13 03:32:52;;;;;;;26.80;5.15;;;9.00;99.90;;;;;;4977074;28;20038;-86
2023/01/13 03:39:18;;;;;;;;;;;;;;;;;;;;;
2023/01/13 03:42:01;;;;;;;;;;;;;;;;;;;;;
2023/01/13 03:45:16;;;;;;;31.75;5.15;;;9.00;99.90;;;;;;4977291;28;20031;-86
2023/01/13 03:47:55;;;;;;;30.58;4.72;;;9.00;99.90;;;;;;4960988;28;20050;-87
2023/01/13 03:50:29;;;;;;;28.95;4.32;;;9.00;99.90;;;;;;4976082;28;20027;-86
2023/01/13 03:53:29;;;;;;;;;;;;;;;;;;;;;
2023/01/13 03:56:29;;;;;;;23.63;4.57;;;9.10;99.90;;;;;;4976004;28;20031;-86
2023/01/13 03:59:01;;;;;;;26.92;4.18;;;9.10;99.90;;;;;;4959033;28;20018;-86
2023/01/13 04:01:29;;;;;;;28.75;4.22;;;9.10;99.90;;;;;;4975135;28;20027;-86
2023/01/13 04:04:41;;;;;;;25.80;3.80;;;9.10;99.90;;;;;;4974523;28;20031;-86
2023/01/13 04:07:23;;;;;;;25.52;3.85;;;9.10;99.90;;;;;;4936075;29;20083;-86
2023/01/13 04:09:49;;;;;;;;;;;9.10;99.90;;;;;;4973080;28;20031;-86
2023/01/13 04:12:59;;;;;;;24.98;4.70;;;9.10;99.90;;;;;;4959298;28;19906;-86
2023/01/13 04:15:26;;;;;;;23.95;3.55;;;9.10;99.90;;;;;;4976400;28;20371;-86
2023/01/13 04:18:00;;;;;;;22.30;3.47;;;9.00;99.90;;;;;;4975321;28;20022;-86
2023/01/13 04:20:35;;;;;;;23.52;4.00;;;9.00;99.90;;;;;;4975568;28;20120;-85
2023/01/13 04:23:04;;;;;;;20.60;3.88;;;9.00;99.90;;;;;;4976399;28;20081;-85
2023/01/13 04:25:35;;;;;;;28.85;4.10;;;9.00;99.90;;;;;;4959253;28;20051;-86
2023/01/13 04:28:03;;;;;;;24.73;4.18;;;9.00;99.90;;;;;;4976264;28;20026;-86
2023/01/13 04:30:31;;;;;;;18.73;3.25;;;9.00;99.90;;;;;;4975201;28;20027;-86
2023/01/13 04:33:08;;;;;;;19.55;3.47;;;9.00;99.90;;;;;;4958476;28;20088;-86
2023/01/13 04:35:37;;;;;;;18.35;2.85;;;9.00;99.90;;;;;;4976276;28;20027;-86
2023/01/13 04:38:07;;;;;;;19.52;2.45;;;9.00;99.90;;;;;;4974915;28;20030;-86
2023/01/13 04:40:35;;;;;;;12.32;2.90;;;9.00;99.90;;;;;;4974542;28;20015;-85
2023/01/13 04:43:14;;;;;;;;;;;;;;;;;;;;;
2023/01/13 04:45:46;;;;;;;12.60;2.10;;;9.00;99.90;;;;;;4975977;28;20029;-86
2023/01/13 04:48:20;;;;;;;11.45;1.80;;;9.00;99.90;;;;;;4976015;28;20030;-86
2023/01/13 04:50:48;;;;;;;12.55;2.35;;;9.00;99.90;;;;;;4974603;28;20032;-89
2023/01/13 04:53:14;;;;;;;15.13;2.33;;;9.00;99.90;;;;;;4958418;28;20496;-86
2023/01/13 04:55:40;;;;;;;14.75;1.88;;;9.00;99.90;;;;;;4958515;28;20027;-87
2023/01/13 04:58:11;;;;;;;15.80;2.35;;;9.00;99.90;;;;;;4958213;28;20022;-86
2023/01/13 05:00:39;;;;;;;14.07;2.00;;;9.00;99.90;;;;;;4974662;28;20533;-86
2023/01/13 05:03:13;;;;;;;11.00;2.13;;;8.90;99.90;;;;;;4958120;28;20129;-85
2023/01/13 05:05:49;;;;;;;;;;;;;;;;;;;;;
2023/01/13 05:08:17;;;;;;;14.15;2.28;;;8.90;99.90;;;;;;4975691;28;20031;-86
2023/01/13 05:10:56;;;;;;;;;;;;;;;;;;;;;
2023/01/13 05:18:55;;;;;;;11.73;2.17;;;8.90;99.90;;;;;;4975389;28;20045;-86
2023/01/13 05:27:22;;;;;;;8.60;1.63;;;8.80;99.90;;;;;;4975932;28;20102;-86
2023/01/13 05:30:00;;;;;;;;;;;;;;;;;;;;;
2023/01/13 05:32:39;;;;;;;;;;;;;;;;;;;;;
2023/01/13 05:35:08;;;;;;;13.18;2.53;;;8.80;99.90;;;;;;4974270;28;20045;-85
2023/01/13 05:37:34;;;;;;;7.75;1.90;;;8.80;99.90;;;;;;4974042;28;20106;-85
2023/01/13 05:46:01;;;;;;;12.35;1.92;;;8.80;99.90;;;;;;4975346;28;20108;-87
2023/01/13 05:48:32;;;;;;;8.15;1.75;;;8.90;99.90;;;;;;4975000;28;20074;-86
2023/01/13 05:51:05;;;;;;;14.95;2.28;;;8.80;99.90;;;;;;4973960;28;20034;-87
2023/01/13 05:53:49;;;;;;;11.70;2.10;;;8.90;99.90;;;;;;4973758;28;20470;-87
2023/01/13 05:56:32;;;;;;;4.65;0.93;;;8.90;99.90;;;;;;4973796;28;20031;-86
2023/01/13 05:59:03;;;;;;;13.90;2.17;;;8.90;99.90;;;;;;4957366;28;20037;-87
2023/01/13 06:01:43;;;;;;;;;;;;;;;;;;;;;
2023/01/13 06:04:19;;;;;;;;;;;;;;;;;;;;;
2023/01/13 06:06:57;;;;;;;22.35;3.33;;;8.90;99.90;;;;;;4973619;28;20413;-86
2023/01/13 06:09:27;;;;;;;18.75;3.50;;;8.80;99.90;;;;;;4973135;28;20031;-86
2023/01/13 06:11:55;;;;;;;12.15;2.30;;;8.80;99.90;;;;;;4973370;28;20034;-86
2023/01/13 06:14:26;;;;;;;12.57;2.20;;;8.80;99.90;;;;;;4957520;28;20298;-85
2023/01/13 06:17:12;;;;;;;16.90;4.00;;;8.90;99.90;;;;;;4973125;28;20517;-84
2023/01/13 06:19:39;;;;;;;13.15;2.28;;;8.80;99.90;;;;;;4974412;28;20058;-85
2023/01/13 06:22:25;;;;;;;12.45;2.50;;;8.80;99.90;;;;;;4973016;28;20027;-85
2023/01/13 06:24:52;;;;;;;17.73;3.28;;;8.80;99.90;;;;;;4969701;28;20510;-85
2023/01/13 06:27:20;;;;;;;14.30;2.25;;;8.80;99.90;;;;;;4953432;29;20086;-85
2023/01/13 06:29:48;;;;;;;12.30;2.35;;;8.70;99.90;;;;;;4969832;28;20046;-85
2023/01/13 06:32:25;;;;;;;15.43;2.55;;;8.70;99.90;;;;;;4953504;29;20035;-84
2023/01/13 06:34:58;;;;;;;16.08;2.30;;;8.70;99.90;;;;;;4954026;29;20020;-84
2023/01/13 06:37:25;;;;;;;17.27;2.85;;;8.70;99.90;;;;;;4969883;28;20051;-85
2023/01/13 06:39:59;;;;;;;14.65;2.70;;;8.70;99.90;;;;;;4953776;29;20043;-85
2023/01/13 06:45:16;;;;;;;;;;;8.70;99.90;;;;;;4955418;29;20042;-84
2023/01/13 06:47:45;;;;;;;19.45;2.65;;;8.70;99.90;;;;;;4954744;28;19915;-84
2023/01/13 06:50:16;;;;;;;17.45;2.53;;;8.70;99.90;;;;;;4953743;29;20378;-84
2023/01/13 06:52:44;;;;;;;;;;;8.60;99.90;;;;;;4970444;28;20050;-84
2023/01/13 06:55:12;;;;;;;15.35;2.63;;;8.70;99.90;;;;;;4969010;28;19910;-85
2023/01/13 06:57:55;;;;;;;14.60;3.05;;;8.60;99.90;;;;;;4954911;28;20023;-85
2023/01/13 07:00:27;;;;;;;18.70;4.65;;;8.60;99.90;;;;;;4953504;29;20023;-84
2023/01/13 07:02:55;;;;;;;11.65;2.92;;;8.60;99.90;;;;;;4953426;29;20536;-84
2023/01/13 07:05:23;;;;;;;16.77;2.72;;;8.60;99.90;;;;;;4967834;28;20529;-85
2023/01/13 07:07:52;;;;;;;17.55;2.50;;;8.60;99.90;;;;;;4972614;28;20031;-84
2023/01/13 07:10:28;;;;;;;16.73;2.58;;;8.60;99.90;;;;;;4972967;28;20379;-84
2023/01/13 07:16:00;;;;;;;16.08;3.53;;;8.70;99.90;;;;;;4974038;28;20045;-85
2023/01/13 07:18:30;;;;;;;18.13;3.00;;;8.70;99.90;;;;;;4972626;28;20447;-84
2023/01/13 07:21:01;;;;;;;20.80;4.10;;;8.70;99.90;;;;;;4972769;28;20036;-84
2023/01/13 07:23:32;;;;;;;17.63;2.67;;;8.60;99.90;;;;;;4972493;28;20489;-84
2023/01/13 07:26:01;;;;;;;21.20;3.60;;;8.70;99.90;;;;;;4972503;28;20047;-84
2023/01/13 07:28:31;;;;;;;24.05;4.10;;;8.70;99.90;;;;;;4988577;28;20082;-84
2023/01/13 07:30:57;;;;;;;14.50;3.15;;;8.60;99.90;;;;;;4973383;28;20026;-83
2023/01/13 07:33:24;;;;;;;17.05;3.40;;;8.70;99.90;;;;;;4990555;28;20022;-84
2023/01/13 07:36:08;;;;;;;16.45;3.20;;;8.70;99.90;;;;;;4992473;28;20133;-84
2023/01/13 07:38:38;;;;;;;22.90;3.47;;;8.70;99.90;;;;;;4991991;28;20109;-83
2023/01/13 07:43:51;;;;;;;20.25;2.70;;;8.70;99.90;;;;;;4947477;28;20039;-86
2023/01/13 07:46:17;;;;;;;18.73;3.13;;;8.70;99.90;;;;;;4963124;28;20107;-84
2023/01/13 07:48:43;;;;;;;15.85;3.25;;;8.70;99.90;;;;;;4944089;29;20118;-84
2023/01/13 07:51:11;;;;;;;19.10;4.72;;;8.70;99.90;;;;;;4960288;29;20023;-91
2023/01/13 07:53:37;;;;;;;20.80;3.10;;;8.70;99.90;;;;;;4956551;29;20027;-83
2023/01/13 07:56:08;;;;;;;21.40;2.83;;;8.70;99.90;;;;;;4956545;29;20502;-85
2023/01/13 07:58:37;;;;;;;12.77;2.40;;;8.70;99.90;;;;;;4956188;29;20082;-83
2023/01/13 08:01:11;;;;;;;21.42;4.20;;;8.70;99.90;;;;;;4961167;28;20480;-85
2023/01/13 08:03:37;;;;;;;21.67;3.50;;;8.70;99.90;;;;;;4978760;28;20043;-86
2023/01/13 08:06:03;;;;;;;20.33;3.03;;;8.70;99.90;;;;;;4969382;28;20026;-86
2023/01/13 08:08:29;;;;;;;25.58;3.55;;;8.70;99.90;;;;;;4982848;28;20102;-85
2023/01/13 08:11:01;;;;;;;16.98;4.05;;;8.70;99.90;;;;;;4959116;28;20066;-85
2023/01/13 08:13:30;;;;;;;17.17;3.35;;;8.70;99.90;;;;;;4970700;28;20076;-83
2023/01/13 08:16:08;;;;;;;18.27;4.20;;;8.70;99.90;;;;;;4975452;28;20471;-83
2023/01/13 08:18:34;;;;;;;16.45;3.35;;;8.70;99.90;;;;;;4975484;28;20049;-85
2023/01/13 08:21:06;;;;;;;24.20;3.53;;;8.70;99.90;;;;;;4976223;28;20110;-83
2023/01/13 08:23:32;;;;;;;21.88;3.50;;;8.80;99.90;;;;;;4975179;28;20039;-83
2023/01/13 08:26:03;;;;;;;20.55;3.20;;;8.80;99.90;;;;;;4958469;28;20062;-83
2023/01/13 08:28:36;;;;;;;19.87;3.77;;;8.80;99.90;;;;;;4959547;28;20034;-83
2023/01/13 08:31:05;;;;;;;23.75;3.78;;;8.80;99.90;;;;;;4974671;28;20367;-83
2023/01/13 08:33:36;;;;;;;19.60;2.97;;;8.80;99.90;;;;;;4975085;28;20166;-83
2023/01/13 08:36:29;;;;;;;18.85;3.83;;;8.80;99.90;;;;;;4975046;28;20031;-83
2023/01/13 08:38:55;;;;;;;18.33;2.97;;;8.80;99.90;;;;;;4961414;28;20035;-83
2023/01/13 08:41:53;;;;;;;20.10;3.60;;;8.80;99.90;;;;;;4975973;28;20023;-83
2023/01/13 08:44:13;;;;;;;20.33;3.67;;;8.80;99.90;;;;;;4975708;28;20412;-83
2023/01/13 08:46:43;;;;;;;19.60;3.25;;;8.80;99.90;;;;;;4959203;28;20041;-83
2023/01/13 08:49:21;;;;;;;19.10;4.03;;;8.90;99.90;;;;;;4974421;28;20169;-82
2023/01/13 08:51:47;;;;;;;20.17;4.22;;;8.90;99.90;;;;;;4974591;28;20042;-84
2023/01/13 08:54:30;;;;;;;27.17;3.55;;;8.90;99.90;;;;;;4975818;28;20026;-83
2023/01/13 08:57:01;;;;;;;19.00;4.32;;;8.90;99.90;;;;;;4959997;28;20045;-83
2023/01/13 08:59:49;;;;;;;;;;;;;;;;;;;;;
2023/01/13 09:02:28;;;;;;;15.68;2.88;;;8.90;99.90;;;;;;4974833;28;20031;-83
2023/01/13 09:04:59;;;;;;;22.50;3.65;;;9.00;99.90;;;;;;4974941;28;20023;-83
2023/01/13 09:07:27;;;;;;;20.25;3.78;;;8.90;99.90;;;;;;4974515;28;20034;-83
2023/01/13 09:10:02;;;;;;;19.05;3.03;;;8.90;99.90;;;;;;4974509;28;20030;-83
2023/01/13 09:15:20;;;;;;;22.05;3.22;;;9.00;99.90;;;;;;4975960;28;20494;-83
2023/01/13 09:18:04;;;;;;;19.45;3.67;;;9.00;99.90;;;;;;4975814;28;20027;-83
2023/01/13 09:20:33;;;;;;;23.02;3.38;;;8.90;99.90;;;;;;4960496;28;20106;-81
2023/01/13 09:22:59;;;;;;;21.20;3.33;;;8.90;99.90;;;;;;4973963;28;20031;-82
2023/01/13 09:25:29;;;;;;;19.80;3.35;;;8.90;99.90;;;;;;4957573;28;20137;-84
2023/01/13 09:28:03;;;;;;;21.45;4.07;;;8.90;99.90;;;;;;4974190;28;20023;-83
2023/01/13 09:30:29;;;;;;;18.92;4.05;;;8.90;99.90;;;;;;4975349;28;20034;-85
2023/01/13 09:36:00;;;;;;;20.33;4.22;;;9.00;99.90;;;;;;4955955;28;20035;-89
2023/01/13 09:38:26;;;;;;;15.27;3.13;;;9.00;99.90;;;;;;4975151;28;20019;-83
2023/01/13 09:40:53;;;;;;;14.10;3.10;;;9.10;99.90;;;;;;4974304;28;20027;-86
2023/01/13 09:43:56;;;;;;;20.98;3.40;;;9.10;99.90;;;;;;4972216;28;20031;-83
2023/01/13 09:46:46;;;;;;;23.00;3.72;;;9.10;99.90;;;;;;4974505;28;20037;-84
2023/01/13 09:49:36;;;;;;;20.25;4.00;;;9.10;99.90;;;;;;4974905;28;20245;-84
2023/01/13 09:52:17;;;;;;;25.40;3.85;;;9.10;99.90;;;;;;4974761;28;20037;-84
2023/01/13 09:54:54;;;;;;;26.67;4.55;;;9.10;99.90;;;;;;4974770;28;20061;-83
2023/01/13 09:57:20;;;;;;;23.58;4.40;;;9.10;99.90;;;;;;4977933;28;20023;-84
2023/01/13 09:59:49;;;;;;;19.15;3.38;;;9.10;99.90;;;;;;4983327;28;20029;-83
2023/01/13 10:03:19;;;;;;;23.33;4.50;;;9.00;99.90;;;;;;4981261;28;20062;-82
2023/01/13 10:06:05;;;;;;;26.15;6.03;;;9.00;99.90;;;;;;4928167;29;20040;-83
2023/01/13 10:08:41;;;;;;;25.70;4.00;;;9.00;99.90;;;;;;4977217;28;20023;-84
2023/01/13 10:14:17;;;;;;;32.30;4.30;;;8.90;99.90;;;;;;4973253;28;20398;-84
2023/01/13 10:16:47;;;;;;;32.30;4.13;;;8.90;99.90;;;;;;4971994;28;20030;-81
2023/01/13 10:19:28;;;;;;;28.42;4.32;;;8.80;99.90;;;;;;4973194;28;20031;-84
2023/01/13 10:21:57;;;;;;;28.33;4.78;;;8.80;99.90;;;;;;4972169;28;20491;-84
2023/01/13 10:25:01;;;;;;;29.23;4.22;;;8.80;99.90;;;;;;4974590;28;20109;-84
2023/01/13 10:27:36;;;;;;;24.00;3.78;;;8.80;99.90;;;;;;4976104;28;20045;-83
2023/01/13 10:30:11;;;;;;;23.25;3.75;;;8.80;99.90;;;;;;4976932;28;20033;-83
2023/01/13 10:32:37;;;;;;;29.17;4.30;;;8.70;99.90;;;;;;4976203;28;20113;-83
2023/01/13 10:35:03;;;;;;;21.65;4.07;;;8.70;99.90;;;;;;4976479;28;20113;-83
2023/01/13 10:37:31;;;;;;;13.65;2.53;;;8.70;99.90;;;;;;4976196;28;20023;-83
2023/01/13 10:40:00;;;;;;;17.65;3.50;;;8.60;99.90;;;;;;4960240;28;20034;-84
2023/01/13 10:42:26;;;;;;;20.58;3.58;;;8.70;99.90;;;;;;4976168;28;20497;-83
2023/01/13 10:45:07;;;;;;;22.88;3.58;;;8.70;99.90;;;;;;4976123;28;20043;-83
2023/01/13 10:47:39;;;;;;;21.77;3.38;;;8.70;99.90;;;;;;4976288;28;20359;-86
2023/01/13 10:50:10;;;;;;;17.27;3.22;;;8.70;99.90;;;;;;4976296;28;20023;-83
2023/01/13 10:52:42;;;;;;;21.13;3.00;;;8.70;99.90;;;;;;4993258;28;20034;-84
2023/01/13 10:55:36;;;;;;;20.67;3.60;;;8.70;99.90;;;;;;4975936;28;20058;-84
2023/01/13 10:58:18;;;;;;;24.80;4.85;;;8.70;99.90;;;;;;4976211;28;20027;-83
2023/01/13 11:00:53;;;;;;;23.38;4.55;;;8.70;99.90;;;;;;4993435;28;20030;-83
2023/01/13 11:03:22;;;;;;;16.45;2.75;;;8.70;99.90;;;;;;4975919;28;20054;-84
2023/01/13 11:05:54;;;;;;;25.30;4.13;;;8.70;99.90;;;;;;4975905;28;20030;-84
2023/01/13 11:08:51;;;;;;;24.92;4.22;;;8.80;99.90;;;;;;4975879;28;20022;-84
2023/01/13 11:11:26;;;;;;;21.63;3.45;;;8.80;99.90;;;;;;4993256;28;20097;-85
2023/01/13 11:16:45;;;;;;;23.25;3.95;;;8.80;99.90;;;;;;5003181;28;20363;-84
2023/01/13 11:19:18;;;;;;;19.60;3.28;;;8.90;99.90;;;;;;4980002;28;20029;-83
2023/01/13 11:21:54;;;;;;;23.30;4.38;;;8.90;99.90;;;;;;4980736;28;20081;-83
2023/01/13 11:27:49;;;;;;;24.58;4.38;;;8.80;99.90;;;;;;5004506;28;20049;-85
2023/01/13 11:30:51;;;;;;;24.60;3.60;;;8.90;99.90;;;;;;4986363;28;20096;-84
2023/01/13 11:34:05;;;;;;;22.52;4.43;;;8.90;99.90;;;;;;4976501;28;20437;-83
2023/01/13 11:36:44;;;;;;;17.98;3.63;;;8.90;99.90;;;;;;4993737;28;20117;-83
2023/01/13 11:39:20;;;;;;;21.98;4.05;;;8.90;99.90;;;;;;4995108;28;20030;-84
2023/01/13 11:44:50;;;;;;;23.10;3.55;;;9.00;99.90;;;;;;5000633;28;20125;-86
2023/01/13 11:47:20;;;;;;;21.45;3.47;;;9.10;99.90;;;;;;4982166;28;20434;-85
2023/01/13 11:49:51;;;;;;;21.35;3.38;;;9.10;99.90;;;;;;4996281;28;20103;-84
2023/01/13 11:55:42;;;;;;;20.45;2.88;;;9.10;99.90;;;;;;4989840;28;20117;-84
2023/01/13 11:58:11;;;;;;;27.77;4.13;;;9.10;99.90;;;;;;4978567;28;20025;-85
2023/01/13 12:00:55;;;;;;;20.60;4.07;;;9.10;99.90;;;;;;4983177;28;20026;-84
2023/01/13 12:04:05;;;;;;;22.23;3.90;;;9.10;99.90;;;;;;4994250;28;20056;-84
2023/01/13 12:06:35;;;;;;;21.95;3.78;;;9.10;99.90;;;;;;4935090;28;20071;-84
2023/01/13 12:09:16;;;;;;;21.55;4.28;;;9.10;99.90;;;;;;4972446;28;20100;-85
2023/01/13 12:12:21;;;;;;;27.08;3.30;;;9.10;99.90;;;;;;4980480;28;20030;-89
2023/01/13 12:15:21;;;;;;;20.88;4.05;;;9.10;99.90;;;;;;4981565;28;20040;-85
2023/01/13 12:18:17;;;;;;;23.80;3.38;;;9.10;99.90;;;;;;4994111;28;20037;-86
2023/01/13 12:21:11;;;;;;;;;;;;;;;;;;;;;
2023/01/13 12:24:09;;;;;;;22.83;3.28;;;9.10;99.90;;;;;;5003065;28;20037;-84
2023/01/13 12:29:54;;;;;;;20.90;4.03;;;9.10;99.90;;;;;;4994821;28;20088;-88
2023/01/13 12:32:32;;;;;;;22.27;3.95;;;9.20;99.90;;;;;;4962455;28;20030;-88
2023/01/13 12:35:04;;;;;;;21.77;4.07;;;9.20;99.90;;;;;;4981321;28;20021;-85
2023/01/13 12:37:54;;;;;;;24.75;2.85;;;9.20;99.90;;;;;;5010333;28;20092;-85
2023/01/13 12:41:04;;;;;;;19.00;3.63;;;9.20;99.90;;;;;;4979357;28;20034;-86
2023/01/13 12:46:31;;;;;;;17.65;2.67;;;9.30;99.90;;;;;;4977292;28;20045;-86
2023/01/13 12:49:08;;;;;;;19.48;3.67;;;9.40;99.90;;;;;;4975659;28;20470;-84
2023/01/13 12:52:06;;;;;;;20.08;3.85;;;9.30;99.90;;;;;;4983809;28;20019;-85
2023/01/13 12:54:44;;;;;;;26.60;3.83;;;9.40;99.90;;;;;;4971176;28;20034;-84
2023/01/13 12:57:18;;;;;;;24.38;4.20;;;9.30;99.90;;;;;;4978671;28;20026;-85
2023/01/13 13:00:05;;;;;;;24.05;4.38;;;9.30;99.90;;;;;;4987518;28;20454;-84
2023/01/13 13:02:41;;;;;;;24.30;3.28;;;9.30;99.90;;;;;;4971559;28;20058;-84
2023/01/13 13:05:15;;;;;;;28.45;3.67;;;9.30;99.90;;;;;;4976428;28;20022;-83
2023/01/13 13:07:46;;;;;;;27.25;3.35;;;9.30;99.90;;;;;;4994119;28;20026;-84
2023/01/13 13:10:36;;;;;;;18.80;2.95;;;9.30;99.90;;;;;;4967379;28;20034;-85
2023/01/13 13:13:18;;;;;;;20.90;4.90;;;9.20;99.90;;;;;;4976504;28;20054;-84
2023/01/13 13:15:46;;;;;;;20.27;3.65;;;9.20;99.90;;;;;;4975489;28;20100;-86
2023/01/13 13:18:19;;;;;;;28.58;4.13;;;9.20;99.90;;;;;;5000276;28;20113;-85
2023/01/13 13:20:57;;;;;;;23.55;3.28;;;9.20;99.90;;;;;;4992281;28;20077;-88
2023/01/13 13:23:44;;;;;;;27.40;3.50;;;9.20;99.90;;;;;;4977076;28;20119;-85
2023/01/13 13:26:28;;;;;;;20.45;3.47;;;9.20;99.90;;;;;;4972323;28;20046;-84
2023/01/13 13:29:07;;;;;;;15.85;3.03;;;9.20;99.90;;;;;;4978136;28;20141;-84
2023/01/13 13:32:12;;;;;;;17.27;3.53;;;9.20;99.90;;;;;;4980727;28;20714;-84
2023/01/13 13:35:02;;;;;;;18.00;3.10;;;9.20;99.90;;;;;;4982632;28;20034;-83
2023/01/13 13:46:45;;;;;;;22.30;3.10;;;9.20;99.90;;;;;;4998276;28;20049;-84
2023/01/13 13:49:19;;;;;;;;;;;9.30;99.90;;;;;;4975937;28;20084;-83
2023/01/13 13:52:25;;;;;;;20.70;2.63;;;9.30;99.90;;;;;;4996921;28;19905;-83
2023/01/13 13:54:55;;;;;;;20.08;3.10;;;9.30;99.90;;;;;;4983742;28;20057;-84
2023/01/13 13:57:41;;;;;;;21.67;3.92;;;9.30;99.90;;;;;;5001331;28;20029;-84
2023/01/13 14:00:45;;;;;;;16.48;3.40;;;9.30;99.90;;;;;;4985008;28;20018;-85
2023/01/13 14:03:33;;;;;;;13.63;2.20;;;9.40;99.90;;;;;;4962446;28;20509;-84
2023/01/13 14:06:04;;;;;;;16.58;3.33;;;9.40;99.90;;;;;;4975687;28;20030;-84
2023/01/13 14:08:36;;;;;;;15.77;2.88;;;9.40;99.90;;;;;;4975744;28;20115;-83
2023/01/13 14:11:26;;;;;;;13.13;2.65;;;9.50;99.90;;;;;;4979621;28;20030;-83
2023/01/13 14:14:14;;;;;;;15.85;2.80;;;9.50;99.90;;;;;;4981414;28;20033;-84
2023/01/13 14:16:40;;;;;;;15.63;2.65;;;9.50;99.90;;;;;;4986720;28;20030;-85
2023/01/13 14:19:23;;;;;;;14.30;2.55;;;9.50;99.90;;;;;;4994913;28;20026;-84
2023/01/13 14:21:49;;;;;;;17.15;3.50;;;9.50;99.90;;;;;;4976351;28;20018;-84
2023/01/13 14:24:27;;;;;;;12.10;2.92;;;9.50;99.90;;;;;;5008802;28;20537;-85
2023/01/13 14:27:10;;;;;;;16.85;2.72;;;9.50;99.90;;;;;;4993044;28;20041;-85
2023/01/13 14:29:45;;;;;;;24.55;2.80;;;9.50;99.90;;;;;;5008004;28;20049;-85
2023/01/13 14:32:21;;;;;;;20.38;3.72;;;9.50;99.90;;;;;;4975227;28;20463;-84
2023/01/13 14:34:57;;;;;;;;;;;;;;;;;;;;;
2023/01/13 14:37:40;;;;;;;20.05;3.10;;;9.60;99.90;;;;;;4993611;28;20501;-84
2023/01/13 14:40:35;;;;;;;17.40;3.15;;;9.60;99.90;;;;;;5008081;28;20033;-84
2023/01/13 14:43:19;;;;;;;;;;;;;;;;;;;;;
2023/01/13 14:46:02;;;;;;;18.45;2.85;;;9.60;99.90;;;;;;4993825;28;20025;-84
2023/01/13 14:48:48;;;;;;;19.45;4.00;;;9.60;99.90;;;;;;5011163;28;20027;-84
2023/01/13 14:51:40;;;;;;;20.45;2.95;;;9.60;99.90;;;;;;5012762;28;20113;-85
2023/01/13 14:54:55;;;;;;;16.73;2.40;;;9.60;99.90;;;;;;4965486;28;20049;-84
2023/01/13 14:57:32;;;;;;;16.30;2.80;;;9.60;99.90;;;;;;4977777;28;20039;-82
2023/01/13 15:00:13;;;;;;;17.45;4.07;;;9.60;99.90;;;;;;4978737;28;20125;-81
2023/01/13 15:02:47;;;;;;;18.42;3.53;;;9.60;99.90;;;;;;4991641;28;20034;-81
2023/01/13 15:05:17;;;;;;;16.75;2.83;;;9.60;99.90;;;;;;4986958;28;20544;-81
2023/01/13 15:08:10;;;;;;;19.48;2.70;;;9.60;99.90;;;;;;4981722;28;20030;-82
2023/01/13 15:10:58;;;;;;;15.63;3.17;;;9.70;99.90;;;;;;4980121;28;20054;-84
2023/01/13 15:13:37;;;;;;;17.70;3.05;;;9.70;99.90;;;;;;5012372;28;20023;-84
2023/01/13 15:16:22;;;;;;;19.33;4.40;;;9.70;99.90;;;;;;4997483;28;20030;-85
2023/01/13 15:18:51;;;;;;;19.27;2.72;;;9.60;99.90;;;;;;5012167;28;20018;-84
2023/01/13 15:21:20;;;;;;;23.60;3.70;;;9.60;99.90;;;;;;5012099;28;20038;-84
2023/01/13 15:24:03;;;;;;;;;;;;;;;;;;;;;
2023/01/13 15:26:32;;;;;;;18.52;2.47;;;9.70;99.90;;;;;;4997048;28;20046;-83
2023/01/13 15:29:02;;;;;;;16.73;2.63;;;9.70;99.90;;;;;;4979571;28;20034;-84
2023/01/13 15:31:42;;;;;;;14.73;2.70;;;9.70;99.90;;;;;;4996976;28;20096;-85
2023/01/13 15:34:11;;;;;;;16.15;2.75;;;9.70;99.90;;;;;;4963761;28;20026;-85
2023/01/13 15:36:54;;;;;;;;;;;;;;;;;;;;;
2023/01/13 15:39:20;;;;;;;16.67;2.58;;;9.70;99.90;;;;;;4996941;28;20022;-84